createdAt,value
2019-03-31T00:01:34.104Z,9.57
2019-03-31T00:04:05.000Z,9.73
2019-03-31T00:06:35.688Z,9.13
2019-03-31T00:09:07.619Z,9.25
2019-03-31T00:11:38.057Z,9.60
2019-03-31T00:14:08.246Z,9.03
2019-03-31T00:16:39.551Z,8.87
2019-03-31T00:19:09.768Z,8.83
2019-03-31T00:21:39.947Z,8.60
2019-03-31T00:24:10.129Z,9.40
2019-03-31T00:26:40.570Z,9.23
2019-03-31T00:29:10.844Z,9.35
2019-03-31T00:31:41.028Z,9.05
2019-03-31T00:34:11.228Z,9.25
2019-03-31T00:36:42.381Z,8.43
2019-03-31T00:39:12.577Z,7.83
2019-03-31T00:41:42.840Z,8.38
2019-03-31T00:44:13.293Z,9.13
2019-03-31T00:46:44.343Z,9.50
2019-03-31T00:49:14.745Z,8.57
2019-03-31T00:51:44.927Z,8.47
2019-03-31T00:54:15.139Z,8.37
2019-03-31T00:56:45.313Z,8.60
2019-03-31T00:59:15.510Z,8.40
2019-03-31T01:01:49.968Z,8.90
2019-03-31T01:04:24.150Z,9.03
2019-03-31T01:06:55.433Z,8.83
2019-03-31T01:09:29.394Z,8.60
2019-03-31T01:12:00.276Z,9.20
2019-03-31T01:14:30.861Z,8.23
2019-03-31T01:17:02.606Z,8.60
2019-03-31T01:19:33.017Z,8.73
2019-03-31T01:22:03.194Z,8.97
2019-03-31T01:24:33.389Z,8.23
2019-03-31T01:27:05.963Z,9.47
2019-03-31T01:29:36.151Z,7.87
2019-03-31T01:32:06.582Z,8.40
2019-03-31T01:34:36.766Z,7.57
2019-03-31T01:37:08.231Z,8.87
2019-03-31T01:39:38.847Z,8.97
2019-03-31T01:42:10.079Z,7.83
2019-03-31T01:44:40.283Z,7.33
2019-03-31T01:47:11.118Z,8.90
2019-03-31T01:49:41.381Z,7.97
2019-03-31T01:52:11.556Z,7.87
2019-03-31T01:54:41.736Z,6.83
2019-03-31T01:57:13.039Z,6.40
2019-03-31T01:59:43.238Z,6.63
2019-03-31T02:02:18.219Z,7.07
2019-03-31T02:04:48.406Z,7.05
2019-03-31T02:07:18.592Z,7.73
2019-03-31T02:09:48.901Z,7.87
2019-03-31T02:12:19.163Z,8.13
2019-03-31T02:14:49.605Z,7.58
2019-03-31T02:17:20.174Z,7.63
2019-03-31T02:19:50.428Z,7.93
2019-03-31T02:22:20.607Z,8.23
2019-03-31T02:24:50.797Z,8.35
2019-03-31T02:27:20.978Z,8.17
2019-03-31T02:29:51.414Z,9.10
2019-03-31T02:32:23.899Z,8.43
2019-03-31T02:34:53.802Z,7.90
2019-03-31T02:37:23.969Z,8.83
2019-03-31T02:39:54.154Z,8.40
2019-03-31T02:42:24.363Z,7.60
2019-03-31T02:44:54.833Z,8.43
2019-03-31T02:47:25.012Z,10.20
2019-03-31T02:49:55.209Z,7.92
2019-03-31T02:52:26.423Z,8.03
2019-03-31T02:54:56.612Z,8.03
2019-03-31T02:57:27.696Z,7.47
2019-03-31T02:59:59.904Z,7.73
2019-03-31T03:02:41.363Z,8.75
2019-03-31T03:05:18.759Z,8.83
2019-03-31T03:07:39.354Z,8.63
2019-03-31T03:10:10.735Z,8.50
2019-03-31T03:12:44.644Z,10.23
2019-03-31T03:15:21.145Z,9.43
2019-03-31T03:17:51.584Z,9.63
2019-03-31T03:20:21.771Z,10.67
2019-03-31T03:22:52.048Z,9.88
2019-03-31T03:25:22.236Z,11.03
2019-03-31T03:27:52.473Z,10.47
2019-03-31T03:30:22.750Z,9.90
2019-03-31T03:33:13.372Z,9.70
2019-03-31T03:35:24.767Z,9.33
2019-03-31T03:37:55.921Z,11.17
2019-03-31T03:40:26.117Z,10.27
2019-03-31T03:42:56.459Z,11.27
2019-03-31T03:45:26.655Z,10.67
2019-03-31T03:47:56.830Z,10.25
2019-03-31T03:50:27.069Z,9.13
2019-03-31T03:52:57.249Z,9.20
2019-03-31T03:55:27.445Z,9.83
2019-03-31T03:57:57.615Z,10.87
2019-03-31T04:00:27.808Z,8.80
2019-03-31T04:02:57.986Z,10.08
2019-03-31T04:05:28.271Z,9.45
2019-03-31T04:07:58.456Z,9.83
2019-03-31T04:11:11.039Z,10.37
2019-03-31T04:13:41.993Z,9.87
2019-03-31T04:16:12.168Z,10.90
2019-03-31T04:18:42.370Z,10.00
2019-03-31T04:21:12.848Z,10.65
2019-03-31T04:23:43.190Z,10.45
2019-03-31T04:26:13.643Z,11.23
2019-03-31T04:28:43.897Z,10.87
2019-03-31T04:31:14.133Z,10.50
2019-03-31T04:33:51.419Z,8.75
2019-03-31T04:36:17.581Z,9.13
2019-03-31T04:38:47.908Z,9.63
2019-03-31T04:41:18.339Z,9.78
2019-03-31T04:43:48.913Z,10.40
2019-03-31T04:46:19.269Z,9.85
2019-03-31T04:48:50.221Z,10.40
2019-03-31T04:51:20.411Z,9.77
2019-03-31T04:53:50.592Z,9.67
2019-03-31T04:56:20.794Z,9.33
2019-03-31T04:58:50.967Z,9.77
2019-03-31T05:01:21.168Z,9.40
2019-03-31T05:04:03.893Z,10.67
2019-03-31T05:06:24.314Z,10.90
2019-03-31T05:08:54.501Z,11.50
2019-03-31T05:11:24.693Z,11.07
2019-03-31T05:13:55.354Z,11.00
2019-03-31T05:16:26.601Z,12.07
2019-03-31T05:18:56.792Z,10.20
2019-03-31T05:21:26.988Z,11.67
2019-03-31T05:23:58.393Z,12.07
2019-03-31T05:26:28.585Z,11.50
2019-03-31T05:28:58.771Z,10.68
2019-03-31T05:31:28.965Z,11.07
2019-03-31T05:33:59.409Z,12.13
2019-03-31T05:36:29.885Z,10.10
2019-03-31T05:39:00.086Z,12.03
2019-03-31T05:41:30.295Z,11.57
2019-03-31T05:44:05.867Z,12.10
2019-03-31T05:46:32.389Z,19.80
2019-03-31T05:49:02.574Z,15.00
2019-03-31T05:51:33.749Z,10.90
2019-03-31T05:54:03.993Z,9.20
2019-03-31T05:56:34.199Z,10.23
2019-03-31T05:59:04.481Z,10.25
2019-03-31T06:01:34.773Z,10.55
2019-03-31T06:04:04.987Z,11.93
2019-03-31T06:06:37.074Z,10.82
2019-03-31T06:09:07.668Z,10.43
2019-03-31T06:11:37.861Z,11.77
2019-03-31T06:14:08.051Z,12.07
2019-03-31T06:16:39.225Z,9.67
2019-03-31T06:19:09.413Z,10.63
2019-03-31T06:21:39.674Z,10.30
2019-03-31T06:24:10.113Z,10.77
2019-03-31T06:26:40.314Z,10.93
2019-03-31T06:29:10.805Z,11.17
2019-03-31T06:31:41.034Z,11.17
2019-03-31T06:34:11.495Z,12.50
2019-03-31T06:36:41.951Z,12.87
2019-03-31T06:39:12.402Z,12.60
2019-03-31T06:41:42.599Z,11.08
2019-03-31T06:44:12.784Z,13.60
2019-03-31T06:46:42.999Z,12.93
2019-03-31T06:49:13.453Z,13.40
2019-03-31T06:51:43.745Z,13.70
2019-03-31T06:54:14.925Z,13.77
2019-03-31T06:56:47.123Z,13.40
2019-03-31T06:59:18.691Z,12.80
2019-03-31T07:01:48.897Z,15.03
2019-03-31T07:04:19.340Z,14.25
2019-03-31T07:06:49.800Z,13.43
2019-03-31T07:09:20.068Z,15.60
2019-03-31T07:11:50.342Z,14.25
2019-03-31T07:14:20.780Z,15.13
2019-03-31T07:16:51.228Z,15.20
2019-03-31T07:19:21.426Z,16.90
2019-03-31T07:21:51.633Z,16.05
2019-03-31T07:24:21.809Z,16.83
2019-03-31T07:26:52.218Z,16.37
2019-03-31T07:29:22.404Z,18.20
2019-03-31T07:31:52.855Z,18.53
2019-03-31T07:34:23.295Z,17.70
2019-03-31T07:36:53.493Z,19.17
2019-03-31T07:39:23.827Z,17.53
2019-03-31T07:41:54.091Z,19.27
2019-03-31T07:44:24.254Z,20.33
2019-03-31T07:46:54.432Z,20.53
2019-03-31T07:49:24.631Z,21.30
2019-03-31T07:51:54.806Z,22.23
2019-03-31T07:54:25.258Z,21.27
2019-03-31T07:56:55.470Z,19.52
2019-03-31T07:59:25.664Z,21.60
2019-03-31T08:01:55.847Z,21.97
2019-03-31T08:04:26.482Z,20.90
2019-03-31T08:06:56.752Z,21.60
2019-03-31T08:09:28.031Z,20.17
2019-03-31T08:11:58.214Z,21.43
2019-03-31T08:14:28.427Z,22.58
2019-03-31T08:16:58.862Z,22.07
2019-03-31T08:19:29.058Z,22.07
2019-03-31T08:21:59.245Z,22.23
2019-03-31T08:24:31.789Z,22.63
2019-03-31T08:27:05.437Z,21.82
2019-03-31T08:29:34.118Z,21.93
2019-03-31T08:32:04.316Z,21.43
2019-03-31T08:34:35.556Z,17.97
2019-03-31T08:37:05.738Z,21.07
2019-03-31T08:39:36.346Z,21.27
2019-03-31T08:42:06.694Z,20.93
2019-03-31T08:44:36.897Z,20.53
2019-03-31T08:47:08.710Z,20.03
2019-03-31T08:49:39.285Z,21.50
2019-03-31T08:52:09.546Z,19.23
2019-03-31T08:54:40.433Z,21.80
2019-03-31T08:57:10.624Z,22.27
2019-03-31T08:59:41.080Z,23.63
2019-03-31T09:02:32.540Z,24.87
2019-03-31T09:05:02.823Z,24.87
2019-03-31T09:07:33.086Z,23.30
2019-03-31T09:10:03.676Z,25.10
2019-03-31T09:12:34.302Z,26.27
2019-03-31T09:15:05.216Z,26.27
2019-03-31T09:17:35.475Z,25.80
2019-03-31T09:20:07.068Z,24.33
2019-03-31T09:22:37.410Z,25.37
2019-03-31T09:25:08.031Z,24.57
2019-03-31T09:27:38.299Z,25.62
2019-03-31T09:30:11.085Z,23.73
2019-03-31T09:32:41.383Z,24.18
2019-03-31T09:35:12.461Z,25.23
2019-03-31T09:37:42.732Z,25.07
2019-03-31T09:40:13.543Z,23.03
2019-03-31T09:42:43.734Z,25.53
2019-03-31T09:45:14.316Z,23.30
2019-03-31T09:47:44.577Z,25.10
2019-03-31T09:50:17.492Z,23.23
2019-03-31T09:52:48.115Z,22.22
2019-03-31T09:55:18.405Z,24.07
2019-03-31T09:57:48.949Z,23.33
2019-03-31T10:00:25.126Z,20.97
2019-03-31T10:02:55.412Z,22.80
2019-03-31T10:05:25.701Z,25.13
2019-03-31T10:07:55.968Z,21.35
2019-03-31T10:10:32.700Z,24.87
2019-03-31T10:13:02.991Z,26.03
2019-03-31T10:15:33.201Z,24.65
2019-03-31T10:18:03.422Z,24.77
2019-03-31T10:20:33.705Z,23.23
2019-03-31T10:23:03.972Z,24.10
2019-03-31T10:25:34.259Z,24.20
2019-03-31T10:28:04.613Z,24.35
2019-03-31T10:30:36.010Z,23.30
2019-03-31T10:33:07.445Z,23.70
2019-03-31T10:35:37.789Z,22.13
2019-03-31T10:38:08.236Z,20.57
2019-03-31T10:40:38.793Z,22.35
2019-03-31T10:43:08.985Z,20.93
2019-03-31T10:45:39.210Z,20.83
2019-03-31T10:48:20.160Z,21.07
2019-03-31T10:50:41.445Z,21.40
2019-03-31T10:53:11.723Z,21.87
2019-03-31T10:55:42.618Z,20.53
2019-03-31T10:58:14.129Z,22.63
2019-03-31T11:00:44.924Z,24.03
2019-03-31T11:03:16.358Z,21.87
2019-03-31T11:05:46.566Z,22.40
2019-03-31T11:08:18.114Z,22.73
2019-03-31T11:10:48.311Z,22.62
2019-03-31T11:13:18.584Z,22.30
2019-03-31T11:15:48.829Z,20.60
2019-03-31T11:18:19.035Z,21.07
2019-03-31T11:20:49.247Z,21.50
2019-03-31T11:23:21.197Z,21.13
2019-03-31T11:25:51.407Z,21.57
2019-03-31T11:28:21.603Z,23.27
2019-03-31T11:30:51.896Z,23.90
2019-03-31T11:33:23.135Z,22.07
2019-03-31T11:35:53.338Z,23.05
2019-03-31T11:38:23.536Z,22.03
2019-03-31T11:40:54.119Z,23.27
2019-03-31T11:43:24.380Z,23.35
2019-03-31T11:45:54.895Z,23.55
2019-03-31T11:48:25.079Z,24.70
2019-03-31T11:50:55.282Z,21.83
2019-03-31T11:53:25.465Z,21.93
2019-03-31T11:55:55.669Z,21.87
2019-03-31T11:58:25.861Z,24.03
2019-03-31T12:00:57.275Z,24.55
2019-03-31T12:03:30.782Z,24.43
2019-03-31T12:05:59.514Z,23.97
2019-03-31T12:08:29.711Z,24.57
2019-03-31T12:11:00.258Z,26.70
2019-03-31T12:13:30.468Z,25.60
2019-03-31T12:16:01.894Z,26.80
2019-03-31T12:18:32.086Z,25.37
2019-03-31T12:21:02.371Z,24.60
2019-03-31T12:23:32.558Z,25.87
2019-03-31T12:26:02.913Z,24.47
2019-03-31T12:28:33.112Z,24.67
2019-03-31T12:31:03.682Z,23.60
2019-03-31T12:33:34.062Z,24.10
2019-03-31T12:36:06.225Z,25.02
2019-03-31T12:38:36.499Z,27.05
2019-03-31T12:41:06.779Z,25.87
2019-03-31T12:43:36.974Z,25.77
2019-03-31T12:46:07.352Z,22.65
2019-03-31T12:48:37.905Z,24.00
2019-03-31T12:51:08.397Z,22.48
2019-03-31T12:53:38.834Z,20.03
2019-03-31T12:56:12.798Z,20.60
2019-03-31T12:58:43.229Z,20.90
2019-03-31T13:01:14.592Z,20.67
2019-03-31T13:03:45.034Z,20.68
2019-03-31T13:06:16.486Z,19.40
2019-03-31T13:08:46.683Z,18.17
2019-03-31T13:11:17.200Z,18.60
2019-03-31T13:13:47.667Z,20.53
2019-03-31T13:16:17.883Z,18.80
2019-03-31T13:18:48.075Z,19.47
2019-03-31T13:21:18.282Z,18.53
2019-03-31T13:23:48.750Z,19.93
2019-03-31T13:26:19.122Z,21.17
2019-03-31T13:28:49.306Z,20.97
2019-03-31T13:31:19.934Z,20.67
2019-03-31T13:33:50.194Z,22.87
2019-03-31T13:36:20.469Z,18.93
2019-03-31T13:38:51.079Z,18.53
2019-03-31T13:41:21.288Z,17.23
2019-03-31T13:43:51.479Z,17.80
2019-03-31T13:46:21.679Z,15.57
2019-03-31T13:48:52.107Z,16.10
2019-03-31T13:51:24.593Z,14.40
2019-03-31T13:53:54.182Z,16.17
2019-03-31T13:56:24.389Z,15.43
2019-03-31T13:58:54.667Z,13.10
2019-03-31T14:01:25.098Z,14.17
2019-03-31T14:03:55.361Z,15.90
2019-03-31T14:06:25.677Z,15.30
2019-03-31T14:08:55.947Z,14.60
2019-03-31T14:11:26.139Z,15.53
2019-03-31T14:13:56.417Z,16.87
2019-03-31T14:16:29.153Z,15.40
2019-03-31T14:18:58.657Z,16.47
2019-03-31T14:21:28.861Z,15.03
2019-03-31T14:23:59.215Z,17.05
2019-03-31T14:26:30.387Z,17.10
2019-03-31T14:29:00.658Z,18.12
2019-03-31T14:31:31.345Z,19.37
2019-03-31T14:34:01.644Z,20.00
2019-03-31T14:36:31.920Z,19.40
2019-03-31T14:39:02.362Z,19.05
2019-03-31T14:41:32.871Z,18.82
2019-03-31T14:44:03.456Z,20.37
2019-03-31T14:46:33.671Z,19.57
2019-03-31T14:49:04.120Z,20.02
2019-03-31T14:51:34.313Z,20.83
2019-03-31T14:54:04.580Z,22.55
2019-03-31T14:56:34.794Z,21.37
2019-03-31T14:59:05.053Z,22.03
2019-03-31T15:01:35.303Z,20.35
2019-03-31T15:04:06.731Z,21.00
2019-03-31T15:06:37.282Z,21.37
2019-03-31T15:09:08.547Z,19.43
2019-03-31T15:11:39.144Z,18.70
2019-03-31T15:14:09.354Z,18.93
2019-03-31T15:16:39.853Z,20.33
2019-03-31T15:19:10.045Z,19.63
2019-03-31T15:21:44.121Z,18.33
2019-03-31T15:24:12.408Z,19.20
2019-03-31T15:26:42.602Z,18.43
2019-03-31T15:29:12.912Z,18.20
2019-03-31T15:31:43.362Z,19.00
2019-03-31T15:34:13.689Z,20.37
2019-03-31T15:36:44.971Z,19.83
2019-03-31T15:39:16.037Z,18.33
2019-03-31T15:41:46.330Z,18.63
2019-03-31T15:44:16.696Z,17.90
2019-03-31T15:46:47.057Z,17.45
2019-03-31T15:49:17.277Z,15.73
2019-03-31T15:51:47.778Z,14.87
2019-03-31T15:54:17.969Z,15.47
2019-03-31T15:56:48.186Z,14.03
2019-03-31T15:59:18.403Z,14.13
2019-03-31T16:01:48.922Z,13.47
2019-03-31T16:04:20.256Z,14.70
2019-03-31T16:06:50.495Z,14.87
2019-03-31T16:09:23.691Z,12.87
2019-03-31T16:11:53.962Z,13.33
2019-03-31T16:14:23.582Z,13.68
2019-03-31T16:16:53.247Z,11.67
2019-03-31T16:19:22.956Z,13.00
2019-03-31T16:21:52.634Z,12.03
2019-03-31T16:24:35.236Z,12.83
2019-03-31T16:27:05.067Z,13.13
2019-03-31T16:29:34.984Z,12.18
2019-03-31T16:32:05.495Z,10.80
2019-03-31T16:34:35.170Z,11.17
2019-03-31T16:37:05.194Z,11.43
2019-03-31T16:39:37.783Z,11.87
2019-03-31T16:42:06.865Z,11.03
2019-03-31T16:44:36.773Z,11.20
2019-03-31T16:47:06.443Z,9.40
2019-03-31T16:49:36.408Z,10.00
2019-03-31T16:52:06.061Z,10.67
2019-03-31T16:54:35.701Z,9.07
2019-03-31T16:57:05.609Z,8.93
2019-03-31T16:59:35.319Z,9.60
2019-03-31T17:02:05.075Z,8.55
2019-03-31T17:04:34.971Z,9.03
2019-03-31T17:07:04.781Z,7.73
2019-03-31T17:09:35.418Z,7.85
2019-03-31T17:12:05.399Z,6.90
2019-03-31T17:14:36.033Z,6.90
2019-03-31T17:17:05.851Z,7.22
2019-03-31T17:19:35.422Z,6.90
2019-03-31T17:22:05.080Z,6.03
2019-03-31T17:24:34.989Z,5.57
2019-03-31T17:27:04.665Z,6.30
2019-03-31T17:29:34.572Z,5.53
2019-03-31T17:32:04.572Z,5.50
2019-03-31T17:34:34.224Z,5.87
2019-03-31T17:37:04.199Z,5.83
2019-03-31T17:39:33.844Z,5.30
2019-03-31T17:42:03.668Z,5.07
2019-03-31T17:44:34.700Z,4.80
2019-03-31T17:47:04.367Z,4.87
2019-03-31T17:49:34.027Z,4.37
2019-03-31T17:52:03.804Z,4.20
2019-03-31T17:54:33.453Z,4.30
2019-03-31T17:57:03.599Z,4.20
2019-03-31T17:59:33.264Z,4.53
2019-03-31T18:02:03.356Z,4.47
2019-03-31T18:04:33.251Z,3.90
2019-03-31T18:07:03.081Z,4.40
2019-03-31T18:09:32.721Z,4.27
2019-03-31T18:12:02.403Z,4.07
2019-03-31T18:14:32.188Z,4.28
2019-03-31T18:17:02.097Z,4.67
2019-03-31T18:19:31.997Z,4.47
2019-03-31T18:22:15.605Z,4.27
2019-03-31T18:24:33.265Z,5.00
2019-03-31T18:27:03.271Z,4.55
2019-03-31T18:29:32.913Z,4.80
2019-03-31T18:32:02.582Z,4.13
2019-03-31T18:34:32.231Z,3.93
2019-03-31T18:37:02.134Z,4.03
2019-03-31T18:39:31.797Z,3.92
2019-03-31T18:42:01.444Z,3.70
2019-03-31T18:44:31.122Z,4.17
2019-03-31T18:47:00.777Z,4.13
2019-03-31T18:49:30.429Z,4.30
2019-03-31T18:52:00.079Z,3.72
2019-03-31T18:54:38.719Z,4.37
2019-03-31T18:57:24.513Z,4.07
2019-03-31T19:00:19.299Z,3.80
2019-03-31T19:02:56.098Z,3.62
2019-03-31T19:05:53.581Z,3.50
2019-03-31T19:08:38.937Z,3.90
2019-03-31T19:11:27.727Z,4.17
2019-03-31T19:14:22.390Z,4.47
2019-03-31T19:17:12.227Z,4.80
2019-03-31T19:19:48.235Z,4.05
2019-03-31T19:22:33.942Z,3.65
2019-03-31T19:25:18.086Z,3.40
2019-03-31T19:28:15.736Z,3.83
2019-03-31T19:31:02.058Z,3.73
2019-03-31T19:34:05.691Z,3.33
2019-03-31T19:36:53.304Z,3.65
2019-03-31T19:39:40.722Z,3.40
2019-03-31T19:42:29.398Z,3.60
2019-03-31T19:45:05.755Z,3.50
2019-03-31T19:48:05.616Z,3.53
2019-03-31T19:50:53.585Z,3.37
2019-03-31T19:53:47.874Z,3.80
2019-03-31T19:56:27.808Z,3.50
2019-03-31T19:59:20.696Z,4.03
2019-03-31T20:01:57.656Z,3.98
2019-03-31T20:04:58.367Z,3.80
2019-03-31T20:07:35.422Z,3.53
2019-03-31T20:10:14.590Z,4.03
2019-03-31T20:13:12.165Z,3.57
2019-03-31T20:16:02.473Z,3.23
2019-03-31T20:18:40.686Z,3.57
2019-03-31T20:21:32.182Z,4.40
2019-03-31T20:24:07.452Z,4.70
2019-03-31T20:26:58.505Z,4.10
2019-03-31T20:29:37.082Z,3.60
2019-03-31T20:32:24.110Z,4.10
2019-03-31T20:34:59.795Z,4.17
2019-03-31T20:37:44.220Z,4.25
2019-03-31T20:40:20.764Z,4.45
2019-03-31T20:43:00.749Z,4.53
2019-03-31T20:45:30.682Z,4.63
2019-03-31T20:48:00.802Z,4.97
2019-03-31T20:50:30.614Z,4.77
2019-03-31T20:53:00.776Z,4.87
2019-03-31T20:55:30.441Z,5.43
2019-03-31T20:58:00.512Z,5.63
2019-03-31T21:00:30.769Z,4.50
2019-03-31T21:03:00.454Z,4.67
2019-03-31T21:05:30.112Z,4.50
2019-03-31T21:08:00.011Z,4.77
2019-03-31T21:10:29.670Z,4.50
2019-03-31T21:12:59.586Z,4.73
2019-03-31T21:15:29.337Z,3.63
2019-03-31T21:17:58.984Z,4.17
2019-03-31T21:20:28.636Z,4.03
2019-03-31T21:22:58.290Z,3.33
2019-03-31T21:25:27.962Z,3.77
2019-03-31T21:27:57.890Z,4.03
2019-03-31T21:30:28.187Z,3.30
2019-03-31T21:32:57.836Z,3.90
2019-03-31T21:35:27.516Z,3.17
2019-03-31T21:37:57.186Z,2.92
2019-03-31T21:40:27.814Z,2.70
2019-03-31T21:42:57.760Z,2.80
2019-03-31T21:45:27.415Z,2.53
2019-03-31T21:47:57.059Z,2.47
2019-03-31T21:50:26.858Z,2.47
2019-03-31T21:52:56.495Z,2.90
2019-03-31T21:55:26.492Z,3.20
2019-03-31T21:57:58.208Z,2.57
2019-03-31T22:00:45.405Z,2.80
2019-03-31T22:03:17.019Z,2.37
2019-03-31T22:05:47.066Z,2.65
2019-03-31T22:08:16.779Z,2.60
2019-03-31T22:10:46.648Z,2.92
2019-03-31T22:13:17.258Z,2.87
2019-03-31T22:15:47.410Z,2.80
2019-03-31T22:18:17.118Z,2.87
2019-03-31T22:20:47.573Z,2.90
2019-03-31T22:23:18.191Z,2.73
2019-03-31T22:25:47.919Z,3.10
2019-03-31T22:28:17.580Z,2.65
2019-03-31T22:30:47.478Z,3.10
2019-03-31T22:33:17.131Z,3.10
2019-03-31T22:36:05.024Z,2.80
2019-03-31T22:38:34.667Z,2.73
2019-03-31T22:41:04.397Z,2.90
2019-03-31T22:43:34.278Z,2.90
2019-03-31T22:46:04.023Z,3.40
2019-03-31T22:48:33.912Z,3.20
2019-03-31T22:51:04.547Z,3.73
2019-03-31T22:53:34.524Z,3.57
2019-03-31T22:56:04.221Z,2.93
2019-03-31T22:58:33.856Z,2.80
2019-03-31T23:01:03.686Z,3.50
2019-03-31T23:03:33.427Z,3.57
2019-03-31T23:06:03.079Z,3.40
2019-03-31T23:08:32.975Z,3.07
2019-03-31T23:11:02.862Z,3.30
2019-03-31T23:13:32.527Z,3.12
2019-03-31T23:16:02.200Z,3.17
2019-03-31T23:18:31.834Z,3.02
2019-03-31T23:21:01.616Z,3.03
2019-03-31T23:23:31.254Z,2.57
2019-03-31T23:26:02.275Z,3.10
2019-03-31T23:28:31.917Z,3.13
2019-03-31T23:31:03.685Z,2.93
2019-03-31T23:33:32.928Z,3.37
2019-03-31T23:36:04.017Z,3.30
2019-03-31T23:38:33.939Z,2.90
2019-03-31T23:41:03.597Z,3.07
2019-03-31T23:43:33.305Z,2.77
2019-03-31T23:46:02.974Z,2.90
2019-03-31T23:48:32.902Z,3.33
2019-03-31T23:51:02.629Z,3.17
2019-03-31T23:53:32.287Z,2.93
2019-03-31T23:56:02.329Z,3.07
2019-03-31T23:58:32.213Z,3.12
